Time;durP1;ratioP1;P1;durP2;ratioP2;P2;SDS_P1;SDS_P2;PMS_P1;PMS_P2;Temp;Humidity;BMP_temperature;BMP_pressure;BME280_temperature;BME280_humidity;BME280_pressure;Samples;Min_cycle;Max_cycle;Signal;HPM_P1;HPM_P2
2022/03/27 00:00:18;;;;;;;4.90;3.78;;;10.50;78.10;;;;;;5034245;28;20500;-71
2022/03/27 00:02:44;;;;;;;7.43;4.68;;;10.50;78.00;;;;;;5028938;28;20048;-69
2022/03/27 00:05:11;;;;;;;4.78;3.88;;;10.50;77.90;;;;;;5035374;28;20024;-70
2022/03/27 00:07:37;;;;;;;5.45;4.40;;;10.60;77.80;;;;;;5036093;28;20025;-71
2022/03/27 00:10:04;;;;;;;4.50;3.58;;;10.60;78.10;;;;;;5034524;28;20074;-72
2022/03/27 00:12:31;;;;;;;5.28;4.40;;;10.60;77.50;;;;;;5028438;28;20099;-71
2022/03/27 00:14:56;;;;;;;5.22;4.10;;;10.70;77.50;;;;;;5030372;28;20096;-71
2022/03/27 00:17:22;;;;;;;4.97;3.72;;;10.70;77.40;;;;;;5029416;28;20025;-70
2022/03/27 00:19:48;;;;;;;5.10;4.18;;;10.70;77.40;;;;;;5028825;28;20476;-71
2022/03/27 00:22:14;;;;;;;6.13;4.45;;;10.60;77.40;;;;;;5025258;28;20033;-70
2022/03/27 00:24:40;;;;;;;4.60;3.90;;;10.60;77.60;;;;;;5032073;28;20060;-71
2022/03/27 00:27:06;;;;;;;4.28;3.30;;;10.60;77.40;;;;;;5026336;28;20369;-71
2022/03/27 00:29:31;;;;;;;4.63;3.65;;;10.70;77.20;;;;;;5029114;28;20065;-71
2022/03/27 00:31:57;;;;;;;5.20;3.83;;;10.80;76.90;;;;;;5031805;28;20084;-72
2022/03/27 00:34:22;;;;;;;6.57;4.20;;;10.80;76.60;;;;;;5028894;28;20029;-71
2022/03/27 00:36:49;;;;;;;6.32;4.47;;;10.80;76.40;;;;;;5026187;28;20049;-69
2022/03/27 00:39:14;;;;;;;6.40;4.72;;;10.80;76.40;;;;;;5027999;28;20032;-68
2022/03/27 00:41:40;;;;;;;5.38;4.20;;;10.80;76.40;;;;;;5030756;28;20029;-68
2022/03/27 00:44:06;;;;;;;5.78;4.50;;;10.70;76.30;;;;;;5030894;28;20029;-69
2022/03/27 00:46:31;;;;;;;7.07;5.63;;;10.70;76.40;;;;;;5031040;28;20029;-69
2022/03/27 00:48:57;;;;;;;7.20;5.72;;;10.70;76.50;;;;;;5029681;28;20030;-68
2022/03/27 00:51:23;;;;;;;5.47;4.82;;;10.60;76.70;;;;;;5030278;28;20061;-69
2022/03/27 00:53:48;;;;;;;6.95;5.55;;;10.50;76.90;;;;;;5028355;28;20017;-69
2022/03/27 00:56:14;;;;;;;6.65;5.60;;;10.50;76.90;;;;;;5047858;28;20021;-70
2022/03/27 00:58:40;;;;;;;5.78;4.88;;;10.50;77.20;;;;;;5039416;28;20027;-71
2022/03/27 01:01:24;;;;;;;5.93;5.00;;;10.50;77.20;;;;;;5035291;28;20491;-72
2022/03/27 01:03:54;;;;;;;7.20;6.15;;;10.50;77.10;;;;;;5026150;28;20019;-71
2022/03/27 01:06:28;;;;;;;6.45;5.20;;;10.40;77.40;;;;;;5030143;28;20029;-71
2022/03/27 01:11:39;;;;;;;6.65;5.53;;;10.40;77.10;;;;;;5035484;28;20040;-69
2022/03/27 01:14:04;;;;;;;6.90;5.38;;;10.50;76.90;;;;;;5035486;28;20028;-69
2022/03/27 01:16:44;;;;;;;6.75;5.85;;;10.50;76.90;;;;;;5034562;28;20025;-70
2022/03/27 01:19:13;;;;;;;6.00;5.15;;;10.50;77.10;;;;;;5034817;28;20586;-69
2022/03/27 01:21:41;;;;;;;7.93;5.35;;;10.50;76.90;;;;;;5029699;28;20021;-69
2022/03/27 01:24:07;;;;;;;9.65;6.93;;;10.50;76.90;;;;;;5036677;28;20472;-70
2022/03/27 01:26:37;;;;;;;8.23;6.55;;;10.50;77.00;;;;;;5028733;28;20030;-69
2022/03/27 01:29:04;;;;;;;9.52;6.45;;;10.40;77.10;;;;;;5029236;28;20112;-69
2022/03/27 01:31:30;;;;;;;6.55;5.47;;;10.40;77.20;;;;;;5029444;28;20456;-69
2022/03/27 01:33:56;;;;;;;6.20;5.32;;;10.30;77.20;;;;;;5028507;28;20071;-70
2022/03/27 01:36:31;;;;;;;7.78;5.85;;;10.40;77.20;;;;;;5030129;28;20391;-70
2022/03/27 01:38:57;;;;;;;6.15;4.85;;;10.30;77.30;;;;;;5029322;28;20025;-69
2022/03/27 01:41:23;;;;;;;7.00;5.40;;;10.40;77.20;;;;;;5029259;28;20074;-69
2022/03/27 01:43:50;;;;;;;8.98;6.60;;;10.40;77.10;;;;;;5027878;28;20017;-68
2022/03/27 01:46:15;;;;;;;7.20;5.88;;;10.40;77.40;;;;;;5030069;28;20048;-69
2022/03/27 01:48:41;;;;;;;7.30;6.00;;;10.30;77.40;;;;;;5029299;28;20419;-69
2022/03/27 01:51:08;;;;;;;7.50;5.47;;;10.40;77.40;;;;;;5025215;28;20404;-70
2022/03/27 01:53:37;;;;;;;8.60;5.75;;;10.40;77.20;;;;;;5031600;28;20021;-69
2022/03/27 01:56:04;;;;;;;7.35;5.60;;;10.40;77.00;;;;;;5039533;28;20025;-68
2022/03/27 01:58:30;;;;;;;5.97;5.35;;;10.40;77.00;;;;;;5029324;28;20125;-68
2022/03/27 02:00:56;;;;;;;5.72;5.10;;;10.40;77.00;;;;;;5028240;28;20113;-69
2022/03/27 02:03:22;;;;;;;5.65;4.88;;;10.40;77.10;;;;;;5027983;28;20446;-68
2022/03/27 02:05:48;;;;;;;7.03;5.32;;;10.30;77.20;;;;;;5029986;28;20018;-69
2022/03/27 02:08:13;;;;;;;6.15;5.00;;;10.30;77.10;;;;;;5029335;28;20021;-70
2022/03/27 02:10:41;;;;;;;8.15;5.70;;;10.30;76.90;;;;;;5027716;28;20383;-69
2022/03/27 02:13:15;;;;;;;7.18;5.68;;;10.30;77.00;;;;;;5029252;28;20079;-69
2022/03/27 02:15:41;;;;;;;6.68;4.80;;;10.30;76.90;;;;;;5029995;28;20017;-70
2022/03/27 02:18:09;;;;;;;5.55;4.68;;;10.20;77.50;;;;;;5030106;28;20022;-70
2022/03/27 02:20:34;;;;;;;7.13;5.70;;;10.20;76.80;;;;;;5028626;28;20018;-70
2022/03/27 02:23:00;;;;;;;6.68;5.00;;;10.20;76.80;;;;;;5028711;28;20481;-69
2022/03/27 02:25:25;;;;;;;6.43;5.13;;;10.20;76.70;;;;;;5027584;28;20087;-70
2022/03/27 02:27:51;;;;;;;6.90;5.47;;;10.20;76.70;;;;;;5029462;28;20040;-70
2022/03/27 02:30:18;;;;;;;5.38;4.32;;;10.20;76.60;;;;;;5028551;28;20068;-70
2022/03/27 02:32:43;;;;;;;6.35;4.95;;;10.20;76.60;;;;;;5029001;28;20032;-69
2022/03/27 02:35:09;;;;;;;5.93;5.07;;;10.20;76.60;;;;;;5028734;28;20025;-69
2022/03/27 02:37:35;;;;;;;5.15;4.38;;;10.20;76.60;;;;;;5028395;28;20570;-69
2022/03/27 02:40:00;;;;;;;8.70;7.10;;;10.20;76.60;;;;;;5026258;28;20053;-69
2022/03/27 02:42:26;;;;;;;6.38;5.20;;;10.00;77.30;;;;;;5028252;28;20051;-69
2022/03/27 02:44:51;;;;;;;6.22;4.75;;;10.00;77.60;;;;;;5029293;28;20038;-69
2022/03/27 02:47:17;;;;;;;5.72;4.68;;;10.00;77.50;;;;;;5029467;28;20045;-70
2022/03/27 02:49:42;;;;;;;7.65;5.47;;;9.90;77.30;;;;;;5028680;28;20036;-69
2022/03/27 02:52:08;;;;;;;8.25;6.35;;;9.90;77.30;;;;;;5027067;28;20032;-70
2022/03/27 02:54:33;;;;;;;7.25;5.40;;;9.90;77.30;;;;;;5026896;28;20029;-69
2022/03/27 02:56:59;;;;;;;9.52;7.53;;;9.90;77.30;;;;;;5028129;28;20025;-68
2022/03/27 02:59:25;;;;;;;7.07;5.50;;;9.90;77.40;;;;;;5029133;28;20033;-69
2022/03/27 03:01:51;;;;;;;7.82;5.75;;;10.00;77.40;;;;;;5029073;28;20087;-69
2022/03/27 03:04:17;;;;;;;7.00;5.50;;;9.90;77.40;;;;;;5028911;28;20435;-69
2022/03/27 03:06:42;;;;;;;6.75;4.88;;;9.90;77.30;;;;;;5029225;28;20105;-70
2022/03/27 03:09:08;;;;;;;7.32;5.05;;;9.90;77.20;;;;;;5029252;28;20030;-71
2022/03/27 03:11:34;;;;;;;10.45;7.28;;;9.90;77.00;;;;;;5028878;28;20133;-70
2022/03/27 03:13:59;;;;;;;9.98;7.18;;;9.70;77.40;;;;;;5031198;28;20034;-71
2022/03/27 03:16:26;;;;;;;9.27;6.25;;;9.60;77.70;;;;;;5032451;28;20026;-69
2022/03/27 03:18:52;;;;;;;9.85;6.30;;;9.60;77.70;;;;;;5032709;28;20021;-69
2022/03/27 03:21:17;;;;;;;12.65;7.78;;;9.50;77.60;;;;;;5032407;28;20634;-69
2022/03/27 03:23:43;;;;;;;11.10;7.10;;;9.40;78.20;;;;;;5032142;28;20051;-69
2022/03/27 03:26:09;;;;;;;10.32;5.80;;;9.40;78.30;;;;;;5030797;28;20108;-68
2022/03/27 03:28:35;;;;;;;10.20;6.55;;;9.40;78.00;;;;;;5016083;28;20100;-69
2022/03/27 03:31:01;;;;;;;11.02;7.28;;;9.40;77.90;;;;;;5032047;28;20029;-69
2022/03/27 03:33:28;;;;;;;11.98;7.57;;;9.40;77.70;;;;;;5030715;28;20559;-69
2022/03/27 03:35:54;;;;;;;13.38;7.82;;;9.40;77.80;;;;;;5032214;28;20032;-68
2022/03/27 03:38:19;;;;;;;15.88;9.60;;;9.40;77.70;;;;;;5032129;28;20105;-68
2022/03/27 03:40:45;;;;;;;11.38;7.28;;;9.30;78.10;;;;;;5031825;28;20029;-68
2022/03/27 03:43:11;;;;;;;11.32;7.05;;;9.20;78.30;;;;;;5031236;28;20048;-68
2022/03/27 03:45:36;;;;;;;13.82;8.05;;;9.30;78.20;;;;;;5032253;28;20171;-69
2022/03/27 03:48:04;;;;;;;13.20;7.90;;;9.30;77.90;;;;;;5032167;28;20040;-70
2022/03/27 03:50:30;;;;;;;12.63;7.50;;;9.30;77.70;;;;;;5031451;28;20492;-70
2022/03/27 03:52:56;;;;;;;13.57;7.70;;;9.40;77.70;;;;;;5031477;28;20711;-72
2022/03/27 03:55:21;;;;;;;15.15;9.45;;;9.40;77.60;;;;;;5031670;28;20033;-71
2022/03/27 03:57:47;;;;;;;14.23;8.50;;;9.40;77.50;;;;;;5029455;28;20022;-68
2022/03/27 04:00:13;;;;;;;12.63;7.63;;;9.40;77.50;;;;;;5029610;28;20614;-69
2022/03/27 04:02:38;;;;;;;15.25;8.65;;;9.40;77.30;;;;;;5030274;28;20040;-70
2022/03/27 04:05:05;;;;;;;15.18;8.73;;;9.40;77.40;;;;;;5031475;28;20087;-70
2022/03/27 04:07:31;;;;;;;15.52;9.07;;;9.40;77.40;;;;;;5028486;28;20029;-68
2022/03/27 04:09:57;;;;;;;15.85;9.43;;;9.40;77.50;;;;;;5030618;28;20036;-70
2022/03/27 04:12:22;;;;;;;14.90;8.60;;;9.40;77.40;;;;;;5031115;28;20104;-69
2022/03/27 04:14:48;;;;;;;17.02;10.13;;;9.40;77.40;;;;;;5027540;28;20092;-69
2022/03/27 04:17:13;;;;;;;12.85;7.63;;;9.40;77.40;;;;;;5030212;28;20105;-69
2022/03/27 04:19:40;;;;;;;13.65;8.40;;;9.40;77.50;;;;;;5031130;28;20410;-70
2022/03/27 04:22:07;;;;;;;14.02;8.82;;;9.40;77.40;;;;;;5030886;28;20033;-70
2022/03/27 04:24:32;;;;;;;14.18;8.40;;;9.40;77.40;;;;;;5030460;28;20101;-69
2022/03/27 04:26:58;;;;;;;12.82;7.68;;;9.40;77.20;;;;;;5030107;28;20148;-69
2022/03/27 04:29:23;;;;;;;12.25;7.55;;;9.50;77.60;;;;;;5029175;28;20044;-71
2022/03/27 04:31:49;;;;;;;11.80;7.38;;;9.60;76.80;;;;;;5030951;28;20033;-71
2022/03/27 04:34:15;;;;;;;15.30;8.60;;;9.60;76.50;;;;;;5029725;28;20369;-71
2022/03/27 04:36:43;;;;;;;14.68;8.05;;;9.60;76.50;;;;;;5026559;28;20052;-71
2022/03/27 04:39:10;;;;;;;11.65;7.20;;;9.50;76.50;;;;;;5025903;28;20393;-71
2022/03/27 04:41:36;;;;;;;11.73;7.07;;;9.50;76.40;;;;;;5031185;28;20499;-70
2022/03/27 04:44:02;;;;;;;14.57;10.02;;;9.60;76.30;;;;;;5030768;28;20029;-70
2022/03/27 04:46:28;;;;;;;12.93;8.00;;;9.60;76.30;;;;;;5030721;28;20049;-71
2022/03/27 04:48:53;;;;;;;18.13;11.27;;;9.50;76.50;;;;;;5030123;28;20025;-70
2022/03/27 04:51:19;;;;;;;16.75;9.68;;;9.30;76.90;;;;;;5030657;28;20072;-68
2022/03/27 04:53:45;;;;;;;12.10;7.50;;;9.20;77.40;;;;;;5030676;28;20033;-68
2022/03/27 04:56:10;;;;;;;16.45;9.80;;;9.20;77.40;;;;;;5030983;28;20041;-70
2022/03/27 04:58:36;;;;;;;14.65;9.65;;;9.10;77.90;;;;;;5030444;28;20502;-70
2022/03/27 05:01:02;;;;;;;11.65;7.93;;;9.00;77.80;;;;;;5029501;28;20079;-71
2022/03/27 05:03:27;;;;;;;12.27;7.82;;;9.00;77.60;;;;;;5030181;28;20021;-72
2022/03/27 05:05:53;;;;;;;10.50;7.00;;;9.00;77.20;;;;;;5029113;28;20109;-73
2022/03/27 05:08:20;;;;;;;8.57;6.13;;;8.90;77.00;;;;;;5030745;28;20122;-72
2022/03/27 05:10:46;;;;;;;9.40;6.43;;;8.90;76.80;;;;;;5028206;28;20021;-72
2022/03/27 05:13:14;;;;;;;12.25;7.50;;;8.90;76.60;;;;;;5028637;28;20033;-72
2022/03/27 05:15:40;;;;;;;10.50;6.90;;;8.90;76.30;;;;;;5030218;28;20067;-71
2022/03/27 05:18:05;;;;;;;11.32;7.15;;;8.90;76.20;;;;;;5030192;28;20029;-71
2022/03/27 05:20:31;;;;;;;11.52;7.68;;;8.90;76.00;;;;;;5024696;28;20025;-72
2022/03/27 05:22:59;;;;;;;11.40;7.45;;;8.90;75.80;;;;;;5024385;28;20025;-70
2022/03/27 05:25:25;;;;;;;9.75;6.65;;;8.80;75.50;;;;;;5030265;28;20495;-71
2022/03/27 05:27:53;;;;;;;9.05;6.40;;;8.80;75.40;;;;;;5029689;28;20037;-71
2022/03/27 05:30:21;;;;;;;10.27;6.88;;;8.70;75.40;;;;;;5029686;28;20060;-70
2022/03/27 05:32:48;;;;;;;11.10;7.25;;;8.60;75.30;;;;;;5029971;28;20040;-70
2022/03/27 05:35:14;;;;;;;9.32;6.72;;;8.60;75.40;;;;;;5029858;28;20056;-71
2022/03/27 05:37:41;;;;;;;12.02;8.05;;;8.50;75.40;;;;;;5029228;28;20442;-70
2022/03/27 05:40:09;;;;;;;12.30;7.95;;;8.50;75.50;;;;;;5029608;28;20385;-70
2022/03/27 05:42:35;;;;;;;11.50;7.50;;;8.40;75.70;;;;;;5029398;28;20697;-70
2022/03/27 05:45:03;;;;;;;11.10;7.30;;;8.40;75.80;;;;;;5029835;28;20516;-69
2022/03/27 05:47:28;;;;;;;12.07;7.22;;;8.40;76.10;;;;;;5029950;28;20500;-69
2022/03/27 05:49:54;;;;;;;12.02;7.20;;;8.40;75.80;;;;;;5029756;28;20061;-70
2022/03/27 05:52:21;;;;;;;8.88;6.30;;;8.30;75.80;;;;;;5028492;28;20029;-67
2022/03/27 05:54:47;;;;;;;17.23;10.05;;;8.40;75.80;;;;;;5029610;28;20029;-69
2022/03/27 05:57:13;;;;;;;15.63;8.85;;;8.30;76.00;;;;;;5029235;28;20010;-70
2022/03/27 05:59:39;;;;;;;12.27;7.90;;;8.20;76.10;;;;;;5024038;28;20013;-69
2022/03/27 06:02:05;;;;;;;14.73;9.07;;;8.20;76.20;;;;;;5029410;28;20039;-71
2022/03/27 06:04:30;;;;;;;12.63;7.85;;;8.10;76.40;;;;;;5029763;28;20033;-71
2022/03/27 06:06:56;;;;;;;13.70;8.27;;;8.10;76.30;;;;;;5028996;28;20447;-70
2022/03/27 06:09:22;;;;;;;14.52;8.00;;;8.20;76.20;;;;;;5029588;28;20067;-70
2022/03/27 06:11:47;;;;;;;12.93;7.38;;;8.20;76.00;;;;;;5028128;28;20030;-70
2022/03/27 06:14:13;;;;;;;13.65;8.10;;;8.30;75.80;;;;;;5029070;28;20101;-70
2022/03/27 06:16:38;;;;;;;16.85;9.93;;;8.40;75.50;;;;;;5029360;28;20022;-69
2022/03/27 06:19:04;;;;;;;19.75;11.95;;;8.40;75.50;;;;;;5029352;28;20026;-70
2022/03/27 06:21:29;;;;;;;15.05;8.90;;;8.30;75.50;;;;;;5024277;28;20120;-70
2022/03/27 06:23:55;;;;;;;15.13;8.52;;;8.30;75.90;;;;;;5029417;28;20025;-71
2022/03/27 06:26:21;;;;;;;12.88;7.60;;;8.30;75.70;;;;;;5026568;28;20415;-70
2022/03/27 06:28:46;;;;;;;11.68;7.57;;;8.30;75.60;;;;;;5028565;28;20025;-70
2022/03/27 06:31:12;;;;;;;12.85;8.18;;;8.30;75.50;;;;;;5027290;28;20459;-70
2022/03/27 06:33:38;;;;;;;12.32;7.95;;;8.30;75.50;;;;;;5027844;28;20492;-69
2022/03/27 06:36:04;;;;;;;16.48;10.30;;;8.30;75.50;;;;;;5026773;28;20026;-69
2022/03/27 06:38:29;;;;;;;14.50;8.57;;;8.30;75.30;;;;;;5022548;28;20075;-69
2022/03/27 06:40:55;;;;;;;19.23;11.70;;;8.20;75.50;;;;;;5028960;28;20025;-69
2022/03/27 06:43:22;;;;;;;15.90;9.15;;;8.00;76.20;;;;;;5029494;28;20451;-69
2022/03/27 06:45:49;;;;;;;14.60;8.45;;;8.00;76.90;;;;;;5013782;28;20037;-68
2022/03/27 06:48:15;;;;;;;12.43;7.63;;;8.00;76.80;;;;;;5024894;28;20030;-68
2022/03/27 06:50:40;;;;;;;14.63;8.00;;;8.20;76.30;;;;;;5024127;28;20029;-69
2022/03/27 06:53:07;;;;;;;17.25;9.27;;;8.20;75.80;;;;;;5032616;28;20391;-69
2022/03/27 06:55:33;;;;;;;17.55;10.68;;;8.10;75.70;;;;;;5024577;28;20191;-69
2022/03/27 06:57:58;;;;;;;15.95;9.25;;;8.00;76.30;;;;;;5031409;28;20624;-71
2022/03/27 07:03:09;;;;;;;13.98;8.13;;;8.00;76.20;;;;;;5029540;28;20761;-72
2022/03/27 07:05:45;;;;;;;16.65;10.38;;;8.00;76.10;;;;;;5033184;28;20021;-71
2022/03/27 07:08:11;;;;;;;16.05;10.13;;;8.00;76.10;;;;;;5031487;28;20040;-72
2022/03/27 07:10:37;;;;;;;18.25;10.45;;;8.00;76.90;;;;;;5030300;28;20033;-69
2022/03/27 07:13:04;;;;;;;15.13;9.00;;;8.00;76.40;;;;;;5044730;28;20056;-69
2022/03/27 07:15:30;;;;;;;17.20;9.98;;;8.00;76.50;;;;;;5033698;28;20051;-70
2022/03/27 07:17:56;;;;;;;14.02;8.98;;;8.10;76.60;;;;;;5025282;28;20523;-69
2022/03/27 07:20:27;;;;;;;18.58;11.82;;;8.20;76.30;;;;;;5027359;28;20037;-68
2022/03/27 07:22:54;;;;;;;18.45;11.93;;;8.30;76.20;;;;;;5024612;28;20027;-70
2022/03/27 07:25:25;;;;;;;16.58;9.95;;;8.30;76.40;;;;;;5029871;28;20032;-70
2022/03/27 07:27:51;;;;;;;18.58;12.10;;;8.30;76.30;;;;;;5027569;28;21338;-70
2022/03/27 07:30:17;;;;;;;15.70;9.93;;;8.40;76.10;;;;;;5023944;28;20018;-72
2022/03/27 07:32:43;;;;;;;15.45;9.77;;;8.40;76.10;;;;;;5027545;28;20762;-70
2022/03/27 07:35:09;;;;;;;19.90;11.60;;;8.60;75.80;;;;;;5024990;28;20032;-71
2022/03/27 07:37:36;;;;;;;18.75;11.05;;;8.70;75.10;;;;;;5027067;28;20017;-70
2022/03/27 07:40:04;;;;;;;17.15;11.55;;;8.70;74.80;;;;;;5027446;28;20021;-70
2022/03/27 07:42:31;;;;;;;18.90;11.27;;;8.70;74.80;;;;;;5020959;28;20480;-70
2022/03/27 07:44:57;;;;;;;17.25;10.93;;;8.80;74.80;;;;;;5027176;28;20120;-67
2022/03/27 07:47:22;;;;;;;13.63;8.70;;;9.00;74.40;;;;;;5026641;28;20018;-69
2022/03/27 07:49:48;;;;;;;12.88;8.68;;;9.10;74.00;;;;;;5026964;28;20029;-72
2022/03/27 07:52:13;;;;;;;14.02;8.90;;;9.30;73.60;;;;;;5022572;28;20030;-70
2022/03/27 07:54:39;;;;;;;13.15;8.50;;;9.40;72.70;;;;;;5026285;28;20026;-69
2022/03/27 07:57:05;;;;;;;13.25;8.02;;;9.50;72.20;;;;;;5025073;28;20033;-69
2022/03/27 07:59:30;;;;;;;12.02;8.43;;;9.60;71.80;;;;;;5024989;28;20091;-69
2022/03/27 08:01:56;;;;;;;14.38;9.48;;;9.70;71.40;;;;;;5030289;28;20028;-70
2022/03/27 08:04:22;;;;;;;17.45;11.10;;;9.80;71.20;;;;;;5027691;28;20080;-69
2022/03/27 08:06:47;;;;;;;14.70;9.73;;;9.90;70.90;;;;;;5026627;28;20021;-69
2022/03/27 08:09:14;;;;;;;13.07;9.40;;;10.00;71.00;;;;;;5024884;28;20602;-69
2022/03/27 08:11:42;;;;;;;14.48;9.20;;;10.10;70.60;;;;;;5026681;28;20025;-69
2022/03/27 08:14:09;;;;;;;12.52;8.10;;;10.20;70.20;;;;;;5027639;28;20055;-69
2022/03/27 08:16:35;;;;;;;11.50;7.82;;;10.20;69.80;;;;;;5029712;28;20037;-70
2022/03/27 08:19:01;;;;;;;14.40;8.73;;;10.30;69.60;;;;;;5037898;28;20021;-69
2022/03/27 08:21:28;;;;;;;11.60;7.60;;;10.40;69.00;;;;;;5044668;28;20119;-70
2022/03/27 08:23:54;;;;;;;14.45;9.65;;;10.40;69.20;;;;;;5034446;28;20534;-69
2022/03/27 08:29:04;;;;;;;12.77;8.55;;;10.60;68.10;;;;;;5032075;28;20526;-69
2022/03/27 08:31:33;;;;;;;10.85;7.30;;;10.70;67.50;;;;;;5025590;28;20037;-70
2022/03/27 08:33:59;;;;;;;13.48;8.30;;;10.80;66.80;;;;;;5025909;28;20446;-69
2022/03/27 08:36:27;;;;;;;11.65;7.18;;;10.80;66.20;;;;;;5034667;28;20021;-69
2022/03/27 08:38:53;;;;;;;11.18;7.90;;;10.80;66.00;;;;;;5034143;28;20036;-69
2022/03/27 08:41:21;;;;;;;11.23;8.43;;;10.90;65.40;;;;;;5036787;28;21903;-69
2022/03/27 08:43:48;;;;;;;16.27;11.07;;;10.90;65.30;;;;;;5039012;28;20502;-68
2022/03/27 08:46:16;;;;;;;16.90;11.50;;;11.00;65.00;;;;;;5037242;28;20124;-69
2022/03/27 08:48:44;;;;;;;13.88;9.50;;;11.00;64.70;;;;;;5031301;28;20033;-70
2022/03/27 08:51:41;;;;;;;14.27;10.20;;;11.00;64.90;;;;;;5032595;28;20033;-69
2022/03/27 08:54:12;;;;;;;12.57;9.30;;;11.00;64.20;;;;;;5022238;28;20061;-70
2022/03/27 08:56:37;;;;;;;15.43;9.18;;;10.90;63.40;;;;;;5033658;28;20025;-70
2022/03/27 08:59:07;;;;;;;13.27;8.85;;;10.90;62.80;;;;;;5030161;28;20037;-69
2022/03/27 09:01:33;;;;;;;10.43;7.20;;;10.90;62.40;;;;;;5021638;28;20034;-69
2022/03/27 09:03:59;;;;;;;12.63;8.65;;;11.00;62.70;;;;;;5027517;28;20029;-69
2022/03/27 09:06:25;;;;;;;14.80;9.70;;;11.20;62.50;;;;;;5031190;28;20400;-68
2022/03/27 09:08:52;;;;;;;12.30;8.40;;;11.20;61.80;;;;;;5029373;28;20079;-71
2022/03/27 09:11:19;;;;;;;12.13;7.57;;;11.20;61.90;;;;;;5030590;28;20109;-69
2022/03/27 09:13:49;;;;;;;9.48;6.53;;;11.30;62.10;;;;;;5030335;28;20037;-70
2022/03/27 09:16:16;;;;;;;8.00;5.15;;;11.40;62.00;;;;;;5031771;28;20096;-70
2022/03/27 09:18:48;;;;;;;14.40;8.80;;;11.50;62.00;;;;;;5039995;28;20026;-71
2022/03/27 09:21:15;;;;;;;12.05;8.05;;;11.60;59.60;;;;;;5033866;28;20036;-70
2022/03/27 09:23:41;;;;;;;10.52;7.00;;;11.50;58.30;;;;;;5029865;28;20631;-69
2022/03/27 09:26:13;;;;;;;7.97;5.65;;;11.60;58.40;;;;;;5030311;28;20017;-70
2022/03/27 09:28:46;;;;;;;;;;;11.60;58.60;;;;;;5033395;28;20700;-69
2022/03/27 09:31:16;;;;;;;;;;;11.70;57.70;;;;;;5034984;28;19996;-68
2022/03/27 09:33:47;;;;;;;9.30;6.45;;;11.70;58.00;;;;;;5031484;28;19909;-67
2022/03/27 09:36:19;;;;;;;9.05;6.22;;;11.70;57.90;;;;;;5023583;28;20113;-69
2022/03/27 09:39:16;;;;;;;10.88;7.43;;;11.80;58.00;;;;;;5027737;28;20091;-69
2022/03/27 09:41:46;;;;;;;13.48;8.07;;;11.90;57.50;;;;;;5025173;28;20053;-70
2022/03/27 09:44:20;;;;;;;14.45;8.88;;;12.00;56.70;;;;;;5028016;28;20029;-68
2022/03/27 09:46:51;;;;;;;10.25;6.78;;;12.00;56.50;;;;;;5029762;28;20033;-68
2022/03/27 09:49:19;;;;;;;9.45;6.32;;;12.10;56.70;;;;;;5034232;28;20100;-70
2022/03/27 09:52:00;;;;;;;8.65;6.43;;;12.20;56.40;;;;;;5036504;28;20102;-71
2022/03/27 09:54:28;;;;;;;8.75;5.45;;;12.30;55.60;;;;;;5033051;28;20026;-70
2022/03/27 09:56:54;;;;;;;8.63;5.32;;;12.50;55.20;;;;;;5043012;28;20075;-71
2022/03/27 09:59:29;;;;;;;9.55;5.95;;;12.60;54.80;;;;;;5021485;28;20089;-71
2022/03/27 10:02:15;;;;;;;9.48;6.20;;;12.60;53.50;;;;;;5021095;28;20052;-70
2022/03/27 10:04:54;;;;;;;7.82;4.90;;;12.70;52.70;;;;;;5027063;28;20052;-69
2022/03/27 10:07:22;;;;;;;7.32;5.40;;;12.80;53.20;;;;;;5026727;28;20395;-70
2022/03/27 10:09:47;;;;;;;7.80;5.80;;;12.90;53.10;;;;;;5025250;28;20056;-70
2022/03/27 10:12:14;;;;;;;8.98;5.95;;;13.00;53.00;;;;;;5021508;28;20061;-68
2022/03/27 10:14:41;;;;;;;10.77;7.88;;;13.10;52.80;;;;;;5036128;28;20055;-69
2022/03/27 10:17:09;;;;;;;10.30;6.10;;;13.10;51.20;;;;;;5028399;28;20473;-69
2022/03/27 10:19:44;;;;;;;8.75;5.80;;;12.90;50.60;;;;;;5031528;28;20091;-68
2022/03/27 10:22:12;;;;;;;12.40;6.82;;;13.00;50.00;;;;;;5025785;28;20025;-68
2022/03/27 10:24:40;;;;;;;9.07;5.35;;;12.90;47.70;;;;;;5033376;28;20025;-70
2022/03/27 10:27:06;;;;;;;10.23;5.97;;;13.00;48.30;;;;;;5049215;28;20029;-68
2022/03/27 10:29:33;;;;;;;10.45;4.90;;;13.00;47.90;;;;;;5036091;28;20033;-69
2022/03/27 10:32:04;;;;;;;9.80;5.95;;;13.10;48.70;;;;;;5035604;28;20017;-69
2022/03/27 10:34:36;;;;;;;10.98;5.75;;;13.20;48.60;;;;;;5033317;28;20013;-68
2022/03/27 10:37:16;;;;;;;8.48;5.60;;;13.20;48.30;;;;;;5027928;28;20395;-69
2022/03/27 10:40:14;;;;;;;9.55;6.00;;;13.30;47.90;;;;;;5023126;28;20104;-69
2022/03/27 10:42:57;;;;;;;8.73;5.60;;;13.40;47.40;;;;;;5026517;28;20036;-70
2022/03/27 10:45:23;;;;;;;7.45;5.18;;;13.40;46.40;;;;;;5029605;28;20112;-69
2022/03/27 10:48:08;;;;;;;6.53;4.22;;;13.50;46.70;;;;;;5028365;28;20112;-69
2022/03/27 10:50:44;;;;;;;8.85;4.95;;;13.70;46.30;;;;;;5031870;28;20100;-68
2022/03/27 10:53:11;;;;;;;9.30;5.75;;;13.70;46.30;;;;;;5030652;28;20033;-69
2022/03/27 10:55:39;;;;;;;9.00;5.70;;;13.80;46.20;;;;;;5037904;28;20032;-69
2022/03/27 10:58:29;;;;;;;7.85;4.97;;;13.70;46.00;;;;;;5035836;28;20037;-70
2022/03/27 11:00:55;;;;;;;9.10;5.45;;;13.70;45.40;;;;;;5032480;28;20680;-70
2022/03/27 11:03:47;;;;;;;8.48;5.15;;;13.80;46.00;;;;;;5024371;28;20029;-69
2022/03/27 11:06:28;;;;;;;6.63;4.20;;;13.90;45.00;;;;;;5016548;28;20029;-70
2022/03/27 11:08:55;;;;;;;5.43;3.70;;;14.00;45.00;;;;;;5026314;28;20022;-69
2022/03/27 11:11:36;;;;;;;7.93;4.50;;;14.10;44.80;;;;;;5025776;28;20027;-69
2022/03/27 11:14:09;;;;;;;5.82;3.70;;;14.20;43.80;;;;;;5025343;28;20133;-69
2022/03/27 11:16:37;;;;;;;;;;;14.30;44.80;;;;;;5029843;28;20139;-70
2022/03/27 11:19:04;;;;;;;8.00;4.05;;;14.30;43.40;;;;;;5030768;28;19989;-69
2022/03/27 11:21:29;;;;;;;6.55;3.58;;;14.20;43.70;;;;;;5031729;28;20447;-68
2022/03/27 11:24:04;;;;;;;5.50;3.50;;;14.30;43.90;;;;;;5023712;28;20107;-68
2022/03/27 11:26:29;;;;;;;5.43;2.90;;;14.40;44.10;;;;;;5025055;28;20488;-69
2022/03/27 11:28:58;;;;;;;6.18;3.70;;;14.50;44.20;;;;;;5035831;28;20026;-69
2022/03/27 11:31:30;;;;;;;4.43;2.95;;;14.60;43.30;;;;;;5033450;28;20029;-69
2022/03/27 11:34:04;;;;;;;5.53;3.20;;;14.70;43.80;;;;;;5034658;28;20570;-69
2022/03/27 11:36:34;;;;;;;6.03;3.63;;;14.90;43.90;;;;;;5035367;28;20021;-69
2022/03/27 11:39:08;;;;;;;5.68;3.33;;;15.00;43.90;;;;;;5039420;28;20528;-69
2022/03/27 11:41:34;;;;;;;5.10;3.40;;;15.10;43.90;;;;;;5039302;28;20506;-69
2022/03/27 11:45:06;;;;;;;5.70;3.25;;;15.30;43.60;;;;;;5038284;28;20029;-69
2022/03/27 11:47:16;;;;;;;4.40;2.60;;;15.40;43.10;;;;;;5036386;28;20032;-69
2022/03/27 11:49:42;;;;;;;;;;;15.50;42.80;;;;;;5040343;28;20118;-69
2022/03/27 11:52:10;;;;;;;4.28;2.47;;;15.60;42.10;;;;;;5041184;28;20011;-70
2022/03/27 11:54:36;;;;;;;6.25;2.97;;;15.70;42.30;;;;;;5035187;28;20045;-70
2022/03/27 11:57:03;;;;;;;3.90;2.47;;;15.80;42.20;;;;;;5029543;28;20484;-69
2022/03/27 11:59:31;;;;;;;6.75;3.00;;;16.00;41.80;;;;;;5036275;28;20021;-70
2022/03/27 12:01:59;;;;;;;4.07;2.53;;;16.10;41.00;;;;;;5034611;28;20112;-71
2022/03/27 12:04:26;;;;;;;5.03;3.08;;;16.20;40.90;;;;;;5034799;28;20037;-70
2022/03/27 12:06:55;;;;;;;5.70;3.50;;;16.30;40.70;;;;;;5039185;28;20033;-70
2022/03/27 12:09:31;;;;;;;6.28;3.50;;;16.30;39.50;;;;;;5035839;28;20032;-70
2022/03/27 12:12:11;;;;;;;7.43;3.80;;;16.20;39.40;;;;;;5034097;28;20037;-70
2022/03/27 12:14:56;;;;;;;5.07;3.28;;;16.00;39.50;;;;;;5031780;28;20069;-69
2022/03/27 12:17:23;;;;;;;4.00;2.80;;;16.10;40.20;;;;;;5040516;28;20395;-68
2022/03/27 12:20:05;;;;;;;3.92;2.40;;;16.20;40.40;;;;;;5037225;28;20041;-69
2022/03/27 12:22:42;;;;;;;5.30;2.85;;;16.40;40.40;;;;;;5035971;28;20087;-70
2022/03/27 12:25:18;;;;;;;3.55;2.47;;;16.50;40.50;;;;;;5034488;28;20027;-70
2022/03/27 12:30:36;;;;;;;5.30;3.50;;;16.80;40.30;;;;;;5034818;28;20040;-68
2022/03/27 12:33:03;;;;;;;7.15;2.97;;;16.80;39.60;;;;;;5028105;28;20056;-69
2022/03/27 12:35:30;;;;;;;4.32;2.70;;;16.80;39.90;;;;;;5031663;28;20018;-69
2022/03/27 12:37:56;;;;;;;4.70;2.75;;;16.70;40.00;;;;;;5035910;28;20029;-69
2022/03/27 12:40:21;;;;;;;5.13;2.72;;;16.90;40.20;;;;;;5030149;28;20132;-69
2022/03/27 12:42:49;;;;;;;3.85;2.20;;;17.00;40.30;;;;;;5035638;28;20506;-69
2022/03/27 12:45:17;;;;;;;3.78;2.30;;;17.30;40.40;;;;;;5043704;28;20091;-69
2022/03/27 12:47:49;;;;;;;4.75;2.53;;;17.50;40.20;;;;;;5039863;28;20025;-69
2022/03/27 12:50:29;;;;;;;5.60;2.80;;;17.40;39.40;;;;;;5030662;28;20449;-71
2022/03/27 12:52:57;;;;;;;6.78;3.40;;;17.40;40.00;;;;;;5034389;28;20546;-69
2022/03/27 12:55:26;;;;;;;4.63;2.88;;;17.40;39.40;;;;;;5041962;28;20309;-70
2022/03/27 12:57:58;;;;;;;5.75;2.90;;;17.50;40.10;;;;;;5039019;28;20025;-70
2022/03/27 13:00:29;;;;;;;3.97;2.72;;;17.50;40.10;;;;;;5035048;28;20056;-70